createdAt,value
2023-01-23T00:00:15.700Z,3.83
2023-01-23T00:02:43.481Z,3.84
2023-01-23T00:05:11.788Z,3.83
2023-01-23T00:07:39.460Z,3.83
2023-01-23T00:10:10.225Z,3.84
2023-01-23T00:12:37.875Z,3.83
2023-01-23T00:15:06.805Z,3.84
2023-01-23T00:17:34.506Z,3.87
2023-01-23T00:20:02.307Z,3.86
2023-01-23T00:22:29.961Z,3.83
2023-01-23T00:24:57.614Z,3.83
2023-01-23T00:27:26.820Z,3.80
2023-01-23T00:29:54.714Z,3.82
2023-01-23T00:32:22.640Z,3.82
2023-01-23T00:34:50.515Z,3.80
2023-01-23T00:37:18.427Z,3.82
2023-01-23T00:39:46.466Z,3.83
2023-01-23T00:42:14.151Z,3.85
2023-01-23T00:44:43.311Z,3.87
2023-01-23T00:47:10.978Z,3.83
2023-01-23T00:49:38.682Z,3.87
2023-01-23T00:52:06.400Z,3.86
2023-01-23T00:54:34.054Z,3.88
2023-01-23T00:57:01.804Z,3.85
2023-01-23T00:59:29.654Z,3.86
2023-01-23T01:01:58.963Z,3.86
2023-01-23T01:04:26.803Z,3.86
2023-01-23T01:06:54.481Z,3.89
2023-01-23T01:09:22.275Z,3.92
2023-01-23T01:11:49.985Z,3.92
2023-01-23T01:14:17.777Z,3.93
2023-01-23T01:16:46.612Z,3.94
2023-01-23T01:19:16.758Z,3.95
2023-01-23T01:21:44.482Z,3.93
2023-01-23T01:24:12.300Z,3.92
2023-01-23T01:26:40.221Z,3.92
2023-01-23T01:29:07.896Z,3.87
2023-01-23T01:31:35.687Z,3.88
2023-01-23T01:34:03.529Z,3.84
2023-01-23T01:36:32.767Z,3.87
2023-01-23T01:39:00.532Z,3.89
2023-01-23T01:41:28.313Z,3.87
2023-01-23T01:43:57.365Z,3.86
2023-01-23T01:46:26.236Z,3.86
2023-01-23T01:49:03.560Z,3.84
2023-01-23T01:51:34.570Z,3.84
2023-01-23T01:54:07.615Z,3.83
2023-01-23T01:56:38.867Z,3.83
2023-01-23T01:59:07.150Z,3.86
2023-01-23T02:01:35.721Z,3.86
2023-01-23T02:04:03.566Z,3.86
2023-01-23T02:06:32.709Z,3.86
2023-01-23T02:09:04.901Z,3.88
2023-01-23T02:11:32.844Z,3.88
2023-01-23T02:14:00.499Z,3.88
2023-01-23T02:16:30.305Z,3.92
2023-01-23T02:19:00.544Z,3.89
2023-01-23T02:21:29.089Z,3.86
2023-01-23T02:24:08.184Z,3.88
2023-01-23T02:26:40.357Z,3.91
2023-01-23T02:29:08.178Z,3.93
2023-01-23T02:31:37.410Z,3.94
2023-01-23T02:34:06.062Z,3.94
2023-01-23T02:36:36.037Z,3.94
2023-01-23T02:39:09.010Z,3.98
2023-01-23T02:41:40.806Z,3.97
2023-01-23T02:44:13.604Z,3.99
2023-01-23T02:46:41.599Z,3.97
2023-01-23T02:49:09.370Z,4.00
2023-01-23T02:51:37.222Z,3.99
2023-01-23T02:54:05.545Z,3.96
2023-01-23T02:56:34.026Z,3.94
2023-01-23T02:59:20.871Z,3.94
2023-01-23T03:01:48.669Z,3.95
2023-01-23T03:04:16.389Z,3.95
2023-01-23T03:06:44.102Z,3.95
2023-01-23T03:09:14.117Z,3.94
2023-01-23T03:11:43.685Z,3.95
2023-01-23T03:14:14.611Z,3.96
2023-01-23T03:16:43.075Z,3.96
2023-01-23T03:19:11.614Z,3.99
2023-01-23T03:21:41.375Z,3.98
2023-01-23T03:24:10.136Z,3.97
2023-01-23T03:26:40.002Z,3.99
2023-01-23T03:29:25.341Z,4.01
2023-01-23T03:31:54.681Z,4.01
2023-01-23T03:34:22.973Z,4.01
2023-01-23T03:36:50.641Z,4.01
2023-01-23T03:39:35.865Z,4.01
2023-01-23T03:42:03.594Z,4.02
2023-01-23T03:44:31.368Z,4.04
2023-01-23T03:47:00.657Z,4.06
2023-01-23T03:49:28.473Z,4.07
2023-01-23T03:51:56.228Z,4.08
2023-01-23T03:54:24.120Z,4.08
2023-01-23T03:56:51.875Z,4.09
2023-01-23T03:59:19.645Z,4.05
2023-01-23T04:01:48.205Z,4.05
2023-01-23T04:04:17.372Z,4.07
2023-01-23T04:06:45.019Z,4.07
2023-01-23T04:09:13.055Z,4.05
2023-01-23T04:11:40.800Z,4.05
2023-01-23T04:14:09.718Z,4.03
2023-01-23T04:16:37.540Z,4.04
2023-01-23T04:19:05.264Z,4.01
2023-01-23T04:21:34.300Z,3.99
2023-01-23T04:24:02.071Z,4.00
2023-01-23T04:26:29.759Z,4.01
2023-01-23T04:28:57.479Z,4.04
2023-01-23T04:31:25.282Z,4.03
2023-01-23T04:33:53.052Z,4.02
2023-01-23T04:36:20.766Z,4.00
2023-01-23T04:38:49.919Z,4.01
2023-01-23T04:41:20.979Z,4.01
2023-01-23T04:43:48.725Z,4.00
2023-01-23T04:46:16.528Z,3.98
2023-01-23T04:48:44.215Z,4.00
2023-01-23T04:51:11.924Z,4.00
2023-01-23T04:53:39.692Z,4.02
2023-01-23T04:56:09.055Z,4.02
2023-01-23T04:58:36.742Z,4.03
2023-01-23T05:01:05.810Z,4.02
2023-01-23T05:03:34.826Z,4.02
2023-01-23T05:06:02.632Z,4.01
2023-01-23T05:08:30.390Z,3.99
2023-01-23T05:10:58.048Z,3.97
2023-01-23T05:13:27.081Z,3.97
2023-01-23T05:15:54.942Z,3.96
2023-01-23T05:18:24.869Z,3.98
2023-01-23T05:20:52.505Z,4.01
2023-01-23T05:23:20.416Z,4.01
2023-01-23T05:25:48.195Z,4.01
2023-01-23T05:28:15.944Z,4.01
2023-01-23T05:30:45.185Z,4.02
2023-01-23T05:33:13.127Z,4.05
2023-01-23T05:35:41.135Z,4.03
2023-01-23T05:38:08.913Z,4.02
2023-01-23T05:40:36.645Z,4.03
2023-01-23T05:43:04.314Z,4.02
2023-01-23T05:45:32.030Z,3.96
2023-01-23T05:48:01.158Z,4.01
2023-01-23T05:50:28.855Z,4.01
2023-01-23T05:52:56.551Z,4.02
2023-01-23T05:55:24.702Z,4.02
2023-01-23T05:57:52.449Z,3.99
2023-01-23T06:00:21.072Z,3.96
2023-01-23T06:02:49.074Z,3.99
2023-01-23T06:05:18.190Z,3.97
2023-01-23T06:07:45.913Z,3.95
2023-01-23T06:10:13.678Z,3.99
2023-01-23T06:12:41.371Z,4.00
2023-01-23T06:15:09.708Z,3.99
2023-01-23T06:17:37.517Z,4.01
2023-01-23T06:20:05.830Z,4.02
2023-01-23T06:22:35.034Z,4.03
2023-01-23T06:25:02.719Z,4.03
2023-01-23T06:27:30.398Z,4.03
2023-01-23T06:29:58.137Z,4.03
2023-01-23T06:32:25.882Z,4.01
2023-01-23T06:34:53.588Z,4.01
2023-01-23T06:37:21.369Z,4.00
2023-01-23T06:39:50.398Z,4.00
2023-01-23T06:42:18.125Z,4.03
2023-01-23T06:44:45.862Z,4.03
2023-01-23T06:47:13.550Z,4.01
2023-01-23T06:49:41.240Z,4.02
2023-01-23T06:52:09.047Z,4.02
2023-01-23T06:54:36.772Z,4.04
2023-01-23T06:57:06.059Z,4.08
2023-01-23T06:59:33.913Z,4.11
2023-01-23T07:02:01.683Z,4.11
2023-01-23T07:04:29.402Z,4.10
2023-01-23T07:06:57.233Z,4.08
2023-01-23T07:09:24.925Z,4.07
2023-01-23T07:11:52.685Z,4.09
2023-01-23T07:14:21.835Z,4.08
2023-01-23T07:16:49.623Z,4.09
2023-01-23T07:19:17.346Z,4.07
2023-01-23T07:21:45.108Z,4.09
2023-01-23T07:24:12.862Z,4.09
2023-01-23T07:26:40.610Z,4.12
2023-01-23T07:29:09.173Z,4.16
2023-01-23T07:31:38.566Z,4.15
2023-01-23T07:34:06.337Z,4.15
2023-01-23T07:36:34.105Z,4.18
2023-01-23T07:39:01.808Z,4.17
2023-01-23T07:41:30.570Z,4.19
2023-01-23T07:43:58.225Z,4.19
2023-01-23T07:46:26.915Z,4.19
2023-01-23T07:48:56.248Z,4.20
2023-01-23T07:51:23.951Z,4.19
2023-01-23T07:53:51.765Z,4.18
2023-01-23T07:56:19.864Z,4.18
2023-01-23T07:58:50.702Z,4.18
2023-01-23T08:01:19.289Z,4.19
2023-01-23T08:03:47.156Z,4.21
2023-01-23T08:06:16.376Z,4.21
2023-01-23T08:08:44.178Z,4.21
2023-01-23T08:11:12.609Z,4.23
2023-01-23T08:13:40.584Z,4.25
2023-01-23T08:16:08.924Z,4.27
2023-01-23T08:18:36.612Z,4.28
2023-01-23T08:21:04.691Z,4.26
2023-01-23T08:23:35.180Z,4.24
2023-01-23T08:26:05.431Z,4.28
2023-01-23T08:28:33.586Z,4.30
2023-01-23T08:31:01.693Z,4.29
2023-01-23T08:33:29.494Z,4.29
2023-01-23T08:35:58.517Z,4.29
2023-01-23T08:38:26.414Z,4.30
2023-01-23T08:40:56.272Z,4.32
2023-01-23T08:43:24.092Z,4.32
2023-01-23T08:45:53.899Z,4.34
2023-01-23T08:48:23.343Z,4.32
2023-01-23T08:50:51.296Z,4.35
2023-01-23T08:53:19.054Z,4.35
2023-01-23T08:55:46.771Z,4.35
2023-01-23T08:58:15.955Z,4.40
2023-01-23T09:00:43.732Z,4.39
2023-01-23T09:03:11.643Z,4.42
2023-01-23T09:05:39.330Z,4.40
2023-01-23T09:08:07.100Z,4.41
2023-01-23T09:10:34.896Z,4.43
2023-01-23T09:13:02.617Z,4.45
2023-01-23T09:15:31.718Z,4.44
2023-01-23T09:18:00.100Z,4.43
2023-01-23T09:20:29.083Z,4.45
2023-01-23T09:22:56.890Z,4.49
2023-01-23T09:25:24.675Z,4.49
2023-01-23T09:27:52.369Z,4.51
2023-01-23T09:30:20.373Z,4.51
2023-01-23T09:32:49.652Z,4.50
2023-01-23T09:35:17.487Z,4.47
2023-01-23T09:38:06.730Z,4.46
2023-01-23T09:40:36.998Z,4.53
2023-01-23T09:43:12.767Z,4.58
2023-01-23T09:45:41.747Z,4.62
2023-01-23T09:48:20.843Z,4.69
2023-01-23T09:50:56.300Z,4.69
2023-01-23T09:53:26.844Z,4.70
2023-01-23T09:56:00.635Z,4.68
2023-01-23T09:58:33.238Z,4.69
2023-01-23T10:01:00.970Z,4.78
2023-01-23T10:03:32.245Z,4.80
2023-01-23T10:06:13.789Z,4.83
2023-01-23T10:08:49.458Z,4.84
2023-01-23T10:11:24.164Z,4.85
2023-01-23T10:14:10.558Z,4.83
2023-01-23T10:16:54.458Z,4.80
2023-01-23T10:19:45.401Z,4.79
2023-01-23T10:22:33.579Z,4.77
2023-01-23T10:25:04.928Z,4.78
2023-01-23T10:27:35.319Z,4.85
2023-01-23T10:30:05.827Z,4.85
2023-01-23T10:32:49.404Z,4.87
2023-01-23T10:35:21.063Z,4.88
2023-01-23T10:37:52.669Z,4.88
2023-01-23T10:40:42.191Z,4.90
2023-01-23T10:43:15.423Z,4.92
2023-01-23T10:45:43.737Z,4.94
2023-01-23T10:48:39.475Z,4.97
2023-01-23T10:51:32.309Z,4.96
2023-01-23T10:54:08.843Z,4.95
2023-01-23T10:56:39.201Z,4.98
2023-01-23T10:59:07.843Z,5.02
2023-01-23T11:01:38.757Z,5.03
2023-01-23T11:04:12.846Z,5.01
2023-01-23T11:06:41.901Z,5.05
2023-01-23T11:09:20.374Z,5.06
2023-01-23T11:12:01.346Z,5.06
2023-01-23T11:14:29.317Z,5.05
2023-01-23T11:17:07.344Z,5.01
2023-01-23T11:19:35.017Z,5.00
2023-01-23T11:22:10.874Z,5.00
2023-01-23T11:24:41.408Z,5.03
2023-01-23T11:27:19.454Z,5.06
2023-01-23T11:29:59.776Z,5.10
2023-01-23T11:32:28.708Z,5.13
2023-01-23T11:35:08.635Z,5.15
2023-01-23T11:37:38.755Z,5.14
2023-01-23T11:40:08.637Z,5.12
2023-01-23T11:42:40.159Z,5.14
2023-01-23T11:45:14.731Z,5.17
2023-01-23T11:48:01.698Z,5.19
2023-01-23T11:50:38.973Z,5.21
2023-01-23T11:53:27.997Z,5.20
2023-01-23T11:56:43.920Z,5.23
2023-01-23T11:59:36.266Z,5.26
2023-01-23T12:02:32.948Z,5.28
2023-01-23T12:05:09.337Z,5.30
2023-01-23T12:07:41.303Z,5.34
2023-01-23T12:10:19.598Z,5.36
2023-01-23T12:13:02.571Z,5.38
2023-01-23T12:15:34.745Z,5.34
2023-01-23T12:18:09.181Z,5.36
2023-01-23T12:20:44.345Z,5.35
2023-01-23T12:23:27.416Z,5.34
2023-01-23T12:26:04.498Z,5.30
2023-01-23T12:28:52.384Z,5.29
2023-01-23T12:31:31.903Z,5.27
2023-01-23T12:34:11.283Z,5.26
2023-01-23T12:37:08.667Z,5.24
2023-01-23T12:39:56.967Z,5.27
2023-01-23T12:42:29.932Z,5.30
2023-01-23T12:45:03.475Z,5.26
2023-01-23T12:47:35.613Z,5.36
2023-01-23T12:50:10.066Z,5.38
2023-01-23T12:52:41.030Z,5.42
2023-01-23T12:55:17.804Z,5.45
2023-01-23T12:58:00.105Z,5.43
2023-01-23T13:00:42.018Z,5.45
2023-01-23T13:03:31.269Z,5.44
2023-01-23T13:06:14.897Z,5.47
2023-01-23T13:09:02.612Z,5.53
2023-01-23T13:11:44.889Z,5.54
2023-01-23T13:14:25.605Z,5.55
2023-01-23T13:16:58.942Z,5.57
2023-01-23T13:19:45.238Z,5.55
2023-01-23T13:22:29.115Z,5.59
2023-01-23T13:25:12.550Z,5.55
2023-01-23T13:27:42.635Z,5.52
2023-01-23T13:30:39.015Z,5.54
2023-01-23T13:33:55.272Z,5.57
2023-01-23T13:36:33.257Z,5.56
2023-01-23T13:39:19.742Z,5.54
2023-01-23T13:41:49.091Z,5.54
2023-01-23T13:44:27.141Z,5.52
2023-01-23T14:22:19.719Z,5.54
2023-01-23T14:24:48.445Z,5.51
2023-01-23T14:27:22.007Z,5.51
2023-01-23T14:29:59.367Z,5.47
2023-01-23T14:32:30.398Z,5.49
2023-01-23T14:34:58.168Z,5.49
2023-01-23T14:37:28.471Z,5.50
2023-01-23T14:39:58.198Z,5.48
2023-01-23T14:42:30.279Z,5.50
2023-01-23T14:45:00.849Z,5.49
2023-01-23T14:47:34.335Z,5.54
2023-01-23T14:50:03.077Z,5.54
2023-01-23T14:52:33.978Z,5.55
2023-01-23T14:55:07.822Z,5.54
2023-01-23T14:57:36.749Z,5.58
2023-01-23T15:00:05.481Z,5.59
2023-01-23T15:02:35.510Z,5.58
2023-01-23T15:05:19.799Z,5.59
2023-01-23T15:07:50.438Z,5.56
2023-01-23T15:10:20.314Z,5.57
2023-01-23T15:12:53.760Z,5.55
2023-01-23T15:15:24.850Z,5.57
2023-01-23T15:17:54.123Z,5.57
2023-01-23T15:20:35.460Z,5.57
2023-01-23T15:23:28.344Z,5.58
2023-01-23T15:26:25.753Z,5.58
2023-01-23T15:28:54.823Z,5.58
2023-01-23T15:31:26.399Z,5.58
2023-01-23T15:33:54.656Z,5.58
2023-01-23T15:36:26.717Z,5.59
2023-01-23T15:38:56.457Z,5.58
2023-01-23T15:41:39.149Z,5.55
2023-01-23T15:44:13.672Z,5.53
2023-01-23T15:46:41.443Z,5.51
2023-01-23T15:49:23.643Z,5.53
2023-01-23T15:51:53.198Z,5.53
2023-01-23T15:54:25.450Z,5.52
2023-01-23T15:57:05.515Z,5.48
2023-01-23T15:59:34.735Z,5.48
2023-01-23T16:02:02.547Z,5.48
2023-01-23T16:04:30.319Z,5.45
2023-01-23T16:06:58.571Z,5.48
2023-01-23T16:09:31.646Z,5.47
2023-01-23T16:12:00.436Z,5.46
2023-01-23T16:14:31.045Z,5.44
2023-01-23T16:17:11.487Z,5.46
2023-01-23T16:19:43.968Z,5.46
2023-01-23T16:22:15.068Z,5.43
2023-01-23T16:24:44.186Z,5.42
2023-01-23T16:27:16.974Z,5.41
2023-01-23T16:29:45.303Z,5.41
2023-01-23T16:32:13.408Z,5.41
2023-01-23T16:34:41.207Z,5.38
2023-01-23T16:37:13.198Z,5.36
2023-01-23T16:39:42.137Z,5.37
2023-01-23T16:42:18.829Z,5.36
2023-01-23T16:44:47.001Z,5.36
2023-01-23T16:48:56.849Z,5.31
2023-01-23T16:53:53.403Z,5.33
2023-01-23T16:56:23.100Z,5.32
2023-01-23T16:58:51.268Z,5.35
2023-01-23T17:01:21.577Z,5.34
2023-01-23T17:03:54.859Z,5.35
2023-01-23T17:06:22.624Z,5.36
2023-01-23T17:08:53.414Z,5.35
2023-01-23T17:11:23.024Z,5.36
2023-01-23T17:13:53.842Z,5.38
2023-01-23T17:16:27.385Z,5.38
2023-01-23T17:18:55.849Z,5.35
2023-01-23T17:21:24.694Z,5.34
2023-01-23T17:23:53.789Z,5.31
